aviador You're here:

LFMC Decoded Metar

LE LUC in FRANCE
Report Time2018-06-17 23:00:00
UTC Time2018-06-17 23:31:20
Flight Rules vfr VFR
Wind240° at 05 kt
W.Decomp.*RWY 27: 4.3 kt HW 2.6 kt LCW
RWY 31: 1.6 kt HW 4.7 kt LCW
W.Rank240° ranks 6
Current wind is below 240° avg. (5.9)
Visibility9999 m
Phenomena:N/A
Clouds:N/A
Expected CloudBase > 3,200 ft AGL from Temp-Dew spread
CeilingNone
Temp22°C (ISA +8)
Dew Point14°C (61% RH)
AAT21.5°C
QNH1014 hPa
Density Alt1,312 ft
Elevation256 ft
Report Wrong Elevation
Raw Report
METAR LFMC 172300Z AUTO 24005KT 210V270 9999 ////// 22/14 Q1014=

Extra information for LFMC:More info

Metar Taf Metar & Taf Last 4 Metars F.Rules Stats Wind Profile Meteogram Temp Stats Airport Information Weather charts Add Link Nearby VenuesMetar ALERT Operation Metar Decoded Social comments